Terminal Aerodrome Forecast
Issued by NWS

Home | Current Version | Previous Version | Text Only | Print | Product List | Glossary On
Versions: 1 2 3 4 5 6 7 8 9 10 11 12 13 14 15 16
763
FTUS43 KIND 302320
TAFHUF
TAF
KHUF 302320Z 0100/0124 VRB03KT P6SM SCT020 OVC080
     FM010100 00000KT P6SM VCSH BKN070
     FM010600 00000KT 5SM BR VCSH BKN035
     FM010900 00000KT 3SM BR BKN015 PROB30 0109/0112 2SM -SHRA BR
      OVC007
     FM011200 00000KT 3SM -SHRA BR BKN015
     FM011500 VRB03KT 3SM SHRA BKN010
     FM011700 22004KT P6SM SHRA OVC020
     FM011800 23004KT P6SM SHRA OVC035=

USA.gov is the U.S. government's official web portal to all federal, state and local government web resources and services.